IBE006 LRBS-LYKV
Flight info
| Callsign | IBE006 |
|---|---|
| Flight time | 0h 46m |
| Altitude | 29000 |
| Route | POLUN UTEKA RAVAK |
| Aircraft | B738/M-SDE2E3FGHIRWXY/LB1 |
Departure
| Time | 2026-04-29 07:31 |
|---|---|
| Airport | Bucharest Băneasa Aurel Vlaicu International Airport (LRBS) |
Arrival
| Time | 2026-04-29 08:18 |
|---|---|
| Airport | Morava Airport (LYKV) |
| Time | Latitude | Longitude | Altitude | Speed | Heading |
|---|---|---|---|---|---|
| 2026-04-29 07:24 | 44.49670 | 26.08287 | 310 ft | 0 kts | 194° |
| 2026-04-29 07:25 | 44.49669 | 26.08287 | 311 ft | 0 kts | 194° |
| 2026-04-29 07:27 | 44.49669 | 26.08286 | 311 ft | 0 kts | 194° |
| 2026-04-29 07:28 | 44.49676 | 26.08289 | 311 ft | 2 kts | 194° |
| 2026-04-29 07:28 | 44.49693 | 26.08295 | 311 ft | 3 kts | 194° |
| 2026-04-29 07:29 | 44.49713 | 26.08302 | 311 ft | 3 kts | 194° |
| 2026-04-29 07:29 | 44.49732 | 26.08309 | 311 ft | 3 kts | 194° |
| 2026-04-29 07:29 | 44.49752 | 26.08316 | 311 ft | 3 kts | 194° |
| 2026-04-29 07:29 | 44.49772 | 26.08324 | 311 ft | 3 kts | 194° |
| 2026-04-29 07:30 | 44.49775 | 26.08323 | 311 ft | 7 kts | 206° |
| 2026-04-29 07:30 | 44.49752 | 26.08227 | 311 ft | 13 kts | 301° |
| 2026-04-29 07:30 | 44.49822 | 26.08174 | 311 ft | 12 kts | 353° |
| 2026-04-29 07:31 | 44.49941 | 26.08397 | 311 ft | 59 kts | 73° |
| 2026-04-29 07:31 | 44.50158 | 26.09452 | 311 ft | 162 kts | 73° |
| 2026-04-29 07:31 | 44.50527 | 26.11241 | 756 ft | 210 kts | 74° |
| 2026-04-29 07:31 | 44.50563 | 26.13312 | 2243 ft | 215 kts | 102° |
| 2026-04-29 07:32 | 44.49759 | 26.15138 | 3205 ft | 232 kts | 137° |
| 2026-04-29 07:32 | 44.48230 | 26.16036 | 4005 ft | 252 kts | 172° |
| 2026-04-29 07:32 | 44.46490 | 26.15539 | 4865 ft | 264 kts | 207° |
| 2026-04-29 07:32 | 44.45010 | 26.14016 | 5965 ft | 267 kts | 219° |
| 2026-04-29 07:33 | 44.43633 | 26.12164 | 6759 ft | 274 kts | 237° |
| 2026-04-29 07:33 | 44.42952 | 26.09792 | 8270 ft | 253 kts | 262° |
| 2026-04-29 07:33 | 44.43174 | 26.07477 | 9810 ft | 241 kts | 284° |
| 2026-04-29 07:33 | 44.43389 | 26.05073 | 10380 ft | 261 kts | 267° |
| 2026-04-29 07:34 | 44.43088 | 26.02500 | 11230 ft | 262 kts | 258° |
| 2026-04-29 07:34 | 44.42757 | 26.00024 | 12559 ft | 250 kts | 264° |
| 2026-04-29 07:34 | 44.42765 | 25.97801 | 14446 ft | 210 kts | 274° |
| 2026-04-29 07:34 | 44.43003 | 25.95749 | 15618 ft | 213 kts | 279° |
| 2026-04-29 07:35 | 44.43110 | 25.93637 | 16494 ft | 225 kts | 268° |
| 2026-04-29 07:35 | 44.43025 | 25.91378 | 17272 ft | 240 kts | 267° |
| 2026-04-29 07:35 | 44.42918 | 25.88980 | 18078 ft | 254 kts | 265° |
| 2026-04-29 07:35 | 44.42672 | 25.86458 | 18883 ft | 269 kts | 260° |
| 2026-04-29 07:36 | 44.42203 | 25.83855 | 19696 ft | 283 kts | 255° |
| 2026-04-29 07:36 | 44.41552 | 25.81229 | 20505 ft | 296 kts | 251° |
| 2026-04-29 07:36 | 44.40766 | 25.78470 | 21304 ft | 308 kts | 249° |
| 2026-04-29 07:36 | 44.39926 | 25.75654 | 22061 ft | 319 kts | 249° |
| 2026-04-29 07:37 | 44.39051 | 25.72737 | 22775 ft | 331 kts | 249° |
| 2026-04-29 07:37 | 44.38146 | 25.69729 | 23458 ft | 341 kts | 249° |
| 2026-04-29 07:37 | 44.37224 | 25.66669 | 24108 ft | 351 kts | 249° |
| 2026-04-29 07:37 | 44.36250 | 25.63438 | 24745 ft | 361 kts | 249° |
| 2026-04-29 07:38 | 44.35260 | 25.60162 | 25296 ft | 371 kts | 248° |
| 2026-04-29 07:38 | 44.34251 | 25.56827 | 25649 ft | 385 kts | 248° |
| 2026-04-29 07:38 | 44.33176 | 25.53277 | 25962 ft | 399 kts | 248° |
| 2026-04-29 07:38 | 44.32094 | 25.49708 | 26325 ft | 408 kts | 248° |
| 2026-04-29 07:39 | 44.30967 | 25.45998 | 26900 ft | 411 kts | 248° |
| 2026-04-29 07:39 | 44.29857 | 25.42349 | 27422 ft | 415 kts | 248° |
| 2026-04-29 07:39 | 44.28724 | 25.38628 | 27923 ft | 419 kts | 248° |
| 2026-04-29 07:39 | 44.27579 | 25.34876 | 28398 ft | 422 kts | 248° |
| 2026-04-29 07:40 | 44.26425 | 25.31099 | 28850 ft | 425 kts | 248° |
| 2026-04-29 07:40 | 44.25260 | 25.27289 | 28991 ft | 427 kts | 248° |
| 2026-04-29 07:40 | 44.23441 | 25.19449 | 28999 ft | 425 kts | 260° |
| 2026-04-29 07:41 | 44.22603 | 25.11247 | 28997 ft | 425 kts | 262° |
| 2026-04-29 07:41 | 44.21770 | 25.03154 | 29410 ft | 426 kts | 262° |
| 2026-04-29 07:42 | 44.21344 | 24.99054 | 29775 ft | 429 kts | 262° |
| 2026-04-29 07:42 | 44.20913 | 24.94912 | 29991 ft | 435 kts | 262° |
| 2026-04-29 07:42 | 44.20033 | 24.86521 | 29997 ft | 438 kts | 262° |
| 2026-04-29 07:43 | 44.19147 | 24.78122 | 29996 ft | 438 kts | 262° |
| 2026-04-29 07:43 | 44.18255 | 24.69736 | 29997 ft | 438 kts | 262° |
| 2026-04-29 07:44 | 44.17356 | 24.61346 | 29997 ft | 438 kts | 262° |
| 2026-04-29 07:44 | 44.16451 | 24.52954 | 29997 ft | 438 kts | 262° |
| 2026-04-29 07:45 | 44.15540 | 24.44568 | 29996 ft | 438 kts | 262° |
| 2026-04-29 07:45 | 44.14623 | 24.36184 | 29997 ft | 438 kts | 262° |
| 2026-04-29 07:46 | 44.13700 | 24.27799 | 29997 ft | 438 kts | 262° |
| 2026-04-29 07:46 | 44.12770 | 24.19416 | 29996 ft | 438 kts | 262° |
| 2026-04-29 07:47 | 44.11835 | 24.11049 | 29996 ft | 438 kts | 262° |
| 2026-04-29 07:47 | 44.10893 | 24.02675 | 29996 ft | 438 kts | 262° |
| 2026-04-29 07:48 | 44.09946 | 23.94302 | 29996 ft | 438 kts | 261° |
| 2026-04-29 07:48 | 44.08992 | 23.85941 | 29997 ft | 438 kts | 261° |
| 2026-04-29 07:49 | 44.08033 | 23.77576 | 29997 ft | 438 kts | 261° |
| 2026-04-29 07:49 | 44.07066 | 23.69209 | 29997 ft | 438 kts | 261° |
| 2026-04-29 07:50 | 44.06094 | 23.60852 | 29996 ft | 438 kts | 261° |
| 2026-04-29 07:50 | 44.05116 | 23.52493 | 29996 ft | 438 kts | 261° |
| 2026-04-29 07:51 | 44.04131 | 23.44138 | 29996 ft | 438 kts | 261° |
| 2026-04-29 07:51 | 44.03142 | 23.35791 | 29997 ft | 438 kts | 261° |
| 2026-04-29 07:52 | 44.02145 | 23.27439 | 29997 ft | 438 kts | 261° |
| 2026-04-29 07:52 | 44.01141 | 23.19086 | 29997 ft | 438 kts | 261° |
| 2026-04-29 07:53 | 44.00133 | 23.10746 | 29996 ft | 438 kts | 261° |
| 2026-04-29 07:53 | 43.99118 | 23.02408 | 30042 ft | 437 kts | 261° |
| 2026-04-29 07:54 | 43.98109 | 22.94166 | 29945 ft | 426 kts | 261° |
| 2026-04-29 07:54 | 43.97126 | 22.86184 | 30040 ft | 408 kts | 261° |
| 2026-04-29 07:55 | 43.96652 | 22.82353 | 29657 ft | 399 kts | 261° |
| 2026-04-29 07:55 | 43.96185 | 22.78589 | 29226 ft | 392 kts | 261° |
| 2026-04-29 07:55 | 43.95725 | 22.74887 | 28794 ft | 386 kts | 261° |
| 2026-04-29 07:55 | 43.95271 | 22.71253 | 28367 ft | 379 kts | 261° |
| 2026-04-29 07:56 | 43.94824 | 22.67678 | 27939 ft | 373 kts | 261° |
| 2026-04-29 07:56 | 43.94380 | 22.64138 | 27518 ft | 371 kts | 261° |
| 2026-04-29 07:56 | 43.93937 | 22.60614 | 27098 ft | 370 kts | 261° |
| 2026-04-29 07:56 | 43.93496 | 22.57116 | 26677 ft | 368 kts | 261° |
| 2026-04-29 07:57 | 43.93055 | 22.53631 | 26254 ft | 365 kts | 261° |
| 2026-04-29 07:57 | 43.92617 | 22.50175 | 25832 ft | 362 kts | 261° |
| 2026-04-29 07:57 | 43.92182 | 22.46751 | 25411 ft | 360 kts | 261° |
| 2026-04-29 07:57 | 43.91750 | 22.43351 | 24990 ft | 357 kts | 261° |
| 2026-04-29 07:58 | 43.91245 | 22.39990 | 24557 ft | 355 kts | 256° |
| 2026-04-29 07:58 | 43.90478 | 22.36753 | 24146 ft | 352 kts | 251° |
| 2026-04-29 07:58 | 43.89593 | 22.33597 | 23724 ft | 350 kts | 250° |
| 2026-04-29 07:58 | 43.88688 | 22.30477 | 23302 ft | 348 kts | 249° |
| 2026-04-29 07:59 | 43.87789 | 22.27383 | 22881 ft | 345 kts | 249° |
| 2026-04-29 07:59 | 43.86894 | 22.24306 | 22459 ft | 343 kts | 249° |
| 2026-04-29 07:59 | 43.86005 | 22.21254 | 22039 ft | 341 kts | 249° |
| 2026-04-29 07:59 | 43.85120 | 22.18220 | 21618 ft | 339 kts | 249° |
| 2026-04-29 08:00 | 43.84240 | 22.15205 | 21197 ft | 336 kts | 249° |
| 2026-04-29 08:00 | 43.83647 | 22.13175 | 20912 ft | 335 kts | 249° |
| 2026-04-29 08:00 | 43.82775 | 22.10197 | 20492 ft | 333 kts | 249° |
| 2026-04-29 08:00 | 43.81926 | 22.07295 | 20080 ft | 330 kts | 249° |
| 2026-04-29 08:01 | 43.81050 | 22.04307 | 19652 ft | 328 kts | 249° |
| 2026-04-29 08:01 | 43.80194 | 22.01391 | 19232 ft | 326 kts | 249° |
| 2026-04-29 08:01 | 43.79343 | 21.98497 | 18812 ft | 324 kts | 249° |
| 2026-04-29 08:01 | 43.78496 | 21.95620 | 18391 ft | 321 kts | 249° |
| 2026-04-29 08:02 | 43.77657 | 21.92770 | 17971 ft | 319 kts | 249° |
| 2026-04-29 08:02 | 43.76821 | 21.89934 | 17550 ft | 317 kts | 249° |
| 2026-04-29 08:02 | 43.75991 | 21.87123 | 17130 ft | 315 kts | 249° |
| 2026-04-29 08:02 | 43.75165 | 21.84328 | 16710 ft | 313 kts | 249° |
| 2026-04-29 08:03 | 43.74344 | 21.81553 | 16291 ft | 311 kts | 249° |
| 2026-04-29 08:03 | 43.73525 | 21.78787 | 15870 ft | 309 kts | 249° |
| 2026-04-29 08:03 | 43.72713 | 21.76048 | 15450 ft | 307 kts | 249° |
| 2026-04-29 08:03 | 43.71903 | 21.73320 | 15029 ft | 305 kts | 249° |
| 2026-04-29 08:04 | 43.71099 | 21.70615 | 14609 ft | 303 kts | 249° |
| 2026-04-29 08:04 | 43.70301 | 21.67931 | 14189 ft | 301 kts | 249° |
| 2026-04-29 08:04 | 43.69506 | 21.65262 | 13769 ft | 300 kts | 249° |
| 2026-04-29 08:04 | 43.68832 | 21.62557 | 13231 ft | 298 kts | 257° |
| 2026-04-29 08:05 | 43.68582 | 21.59711 | 12582 ft | 298 kts | 266° |
| 2026-04-29 08:05 | 43.68469 | 21.56859 | 12042 ft | 296 kts | 267° |
| 2026-04-29 08:05 | 43.68351 | 21.54047 | 11588 ft | 290 kts | 267° |
| 2026-04-29 08:05 | 43.68230 | 21.51290 | 11178 ft | 285 kts | 266° |
| 2026-04-29 08:06 | 43.68109 | 21.48585 | 10849 ft | 278 kts | 266° |
| 2026-04-29 08:06 | 43.67991 | 21.45974 | 10644 ft | 267 kts | 266° |
| 2026-04-29 08:06 | 43.67876 | 21.43453 | 10453 ft | 258 kts | 266° |
| 2026-04-29 08:06 | 43.67765 | 21.41020 | 10271 ft | 250 kts | 266° |
| 2026-04-29 08:07 | 43.67655 | 21.38640 | 10115 ft | 248 kts | 266° |
| 2026-04-29 08:07 | 43.67544 | 21.36242 | 9936 ft | 252 kts | 266° |
| 2026-04-29 08:07 | 43.67432 | 21.33821 | 9647 ft | 251 kts | 266° |
| 2026-04-29 08:07 | 43.67321 | 21.31452 | 9364 ft | 250 kts | 266° |
| 2026-04-29 08:08 | 43.67208 | 21.29042 | 9090 ft | 248 kts | 266° |
| 2026-04-29 08:08 | 43.67097 | 21.26705 | 8827 ft | 246 kts | 266° |
| 2026-04-29 08:08 | 43.66985 | 21.24326 | 8562 ft | 244 kts | 266° |
| 2026-04-29 08:08 | 43.66874 | 21.21992 | 8304 ft | 243 kts | 266° |
| 2026-04-29 08:09 | 43.66763 | 21.19667 | 8046 ft | 242 kts | 266° |
| 2026-04-29 08:09 | 43.66652 | 21.17359 | 7798 ft | 241 kts | 266° |
| 2026-04-29 08:09 | 43.66541 | 21.15055 | 7550 ft | 240 kts | 266° |
| 2026-04-29 08:09 | 43.66430 | 21.12761 | 7306 ft | 239 kts | 266° |
| 2026-04-29 08:10 | 43.66319 | 21.10476 | 7064 ft | 238 kts | 266° |
| 2026-04-29 08:10 | 43.66208 | 21.08197 | 6824 ft | 238 kts | 266° |
| 2026-04-29 08:10 | 43.66098 | 21.05922 | 6584 ft | 237 kts | 267° |
| 2026-04-29 08:10 | 43.65986 | 21.03647 | 6347 ft | 238 kts | 267° |
| 2026-04-29 08:11 | 43.65874 | 21.01371 | 6113 ft | 238 kts | 268° |
| 2026-04-29 08:11 | 43.65760 | 20.99089 | 5876 ft | 239 kts | 268° |
| 2026-04-29 08:11 | 43.65645 | 20.96788 | 5647 ft | 240 kts | 268° |
| 2026-04-29 08:11 | 43.65529 | 20.94483 | 5417 ft | 242 kts | 268° |
| 2026-04-29 08:12 | 43.65412 | 20.92159 | 5188 ft | 243 kts | 267° |
| 2026-04-29 08:12 | 43.65293 | 20.89825 | 4970 ft | 244 kts | 267° |
| 2026-04-29 08:12 | 43.65176 | 20.87501 | 4828 ft | 241 kts | 267° |
| 2026-04-29 08:12 | 43.65060 | 20.85220 | 4704 ft | 236 kts | 267° |
| 2026-04-29 08:13 | 43.64946 | 20.82976 | 4541 ft | 233 kts | 266° |
| 2026-04-29 08:13 | 43.64943 | 20.80748 | 4308 ft | 233 kts | 279° |
| 2026-04-29 08:13 | 43.65640 | 20.78772 | 4189 ft | 227 kts | 306° |
| 2026-04-29 08:13 | 43.66702 | 20.77187 | 4134 ft | 225 kts | 316° |
| 2026-04-29 08:14 | 43.67890 | 20.75768 | 4005 ft | 227 kts | 320° |
| 2026-04-29 08:14 | 43.69101 | 20.74340 | 3848 ft | 230 kts | 319° |
| 2026-04-29 08:14 | 43.70312 | 20.72870 | 3680 ft | 234 kts | 318° |
| 2026-04-29 08:14 | 43.71537 | 20.71364 | 3425 ft | 233 kts | 318° |
| 2026-04-29 08:15 | 43.72744 | 20.69873 | 2939 ft | 235 kts | 318° |
| 2026-04-29 08:15 | 43.73965 | 20.68361 | 2455 ft | 232 kts | 318° |
| 2026-04-29 08:15 | 43.75092 | 20.66964 | 2091 ft | 205 kts | 318° |
| 2026-04-29 08:15 | 43.76076 | 20.65742 | 1965 ft | 177 kts | 318° |
| 2026-04-29 08:16 | 43.76922 | 20.64691 | 1919 ft | 151 kts | 318° |
| 2026-04-29 08:16 | 43.77685 | 20.63743 | 1891 ft | 144 kts | 318° |
| 2026-04-29 08:16 | 43.78429 | 20.62820 | 1918 ft | 144 kts | 318° |
| 2026-04-29 08:16 | 43.79184 | 20.61882 | 1664 ft | 145 kts | 318° |
| 2026-04-29 08:17 | 43.79925 | 20.60959 | 1374 ft | 144 kts | 318° |
| 2026-04-29 08:17 | 43.80706 | 20.59987 | 847 ft | 157 kts | 318° |
| 2026-04-29 08:17 | 43.81466 | 20.59020 | 708 ft | 126 kts | 317° |
| 2026-04-29 08:17 | 43.81889 | 20.58512 | 706 ft | 60 kts | 317° |
| 2026-04-29 08:18 | 43.82101 | 20.58240 | 706 ft | 29 kts | 321° |
| 2026-04-29 08:18 | 43.82249 | 20.58198 | 706 ft | 17 kts | 36° |
| 2026-04-29 08:18 | 43.82336 | 20.58258 | 706 ft | 7 kts | 337° |
| 2026-04-29 08:18 | 43.82378 | 20.58253 | 706 ft | 7 kts | 25° |
| 2026-04-29 08:19 | 43.82388 | 20.58265 | 706 ft | 0 kts | 45° |